createdAt,value
2023-01-28T00:00:36.233Z,6.20
2023-01-28T00:03:03.332Z,7.25
2023-01-28T00:05:30.407Z,6.75
2023-01-28T00:07:57.885Z,7.80
2023-01-28T00:10:24.898Z,8.27
2023-01-28T00:12:52.020Z,6.95
2023-01-28T00:15:19.046Z,8.43
2023-01-28T00:17:46.001Z,8.27
2023-01-28T00:20:13.657Z,5.65
2023-01-28T00:22:40.700Z,10.45
2023-01-28T00:25:07.812Z,6.70
2023-01-28T00:27:34.916Z,8.70
2023-01-28T00:30:02.023Z,6.25
2023-01-28T00:32:29.025Z,8.18
2023-01-28T00:34:56.033Z,8.48
2023-01-28T00:37:23.072Z,8.27
2023-01-28T00:39:50.381Z,7.40
2023-01-28T00:42:17.361Z,7.80
2023-01-28T00:44:44.407Z,9.10
2023-01-28T00:47:11.449Z,10.60
2023-01-28T00:49:38.462Z,8.38
2023-01-28T00:52:05.598Z,7.00
2023-01-28T00:54:32.647Z,9.45
2023-01-28T00:56:59.841Z,7.60
2023-01-28T00:59:27.783Z,8.95
2023-01-28T01:01:54.830Z,11.82
2023-01-28T01:04:26.341Z,7.90
2023-01-28T01:06:53.589Z,7.88
2023-01-28T01:09:20.702Z,11.02
2023-01-28T01:11:47.821Z,11.35
2023-01-28T01:14:14.994Z,11.80
2023-01-28T01:16:41.991Z,12.93
2023-01-28T01:19:09.343Z,8.93
2023-01-28T01:21:36.363Z,10.15
2023-01-28T01:24:03.477Z,9.88
2023-01-28T01:26:30.509Z,7.78
2023-01-28T01:28:57.543Z,11.85
2023-01-28T01:31:24.675Z,11.02
2023-01-28T01:33:52.095Z,9.18
2023-01-28T01:36:21.570Z,8.85
2023-01-28T01:38:48.869Z,9.35
2023-01-28T01:41:29.396Z,7.88
2023-01-28T01:46:43.481Z,8.85
2023-01-28T01:49:18.972Z,8.70
2023-01-28T01:51:46.282Z,11.02
2023-01-28T01:54:13.264Z,12.90
2023-01-28T01:56:41.030Z,8.02
2023-01-28T01:59:09.748Z,10.00
2023-01-28T02:01:36.764Z,13.43
2023-01-28T02:04:03.742Z,11.07
2023-01-28T02:06:31.391Z,11.07
2023-01-28T02:08:58.436Z,10.75
2023-01-28T02:11:29.881Z,10.55
2023-01-28T02:13:57.399Z,8.75
2023-01-28T02:16:24.481Z,15.98
2023-01-28T02:18:51.573Z,14.70
2023-01-28T02:21:37.126Z,10.95
2023-01-28T02:24:22.918Z,12.25
2023-01-28T02:27:08.740Z,11.38
2023-01-28T02:29:51.118Z,13.77
2023-01-28T02:32:37.454Z,12.50
2023-01-28T02:35:15.508Z,9.50
2023-01-28T02:37:52.725Z,11.02
2023-01-28T02:40:21.223Z,11.60
2023-01-28T02:42:48.289Z,9.52
2023-01-28T02:45:19.403Z,11.43
2023-01-28T02:47:58.467Z,9.38
2023-01-28T02:50:26.862Z,9.80
2023-01-28T02:53:16.770Z,11.05
2023-01-28T02:55:49.928Z,9.90
2023-01-28T02:58:35.863Z,10.45
2023-01-28T03:01:02.854Z,13.43
2023-01-28T03:03:32.913Z,11.43
2023-01-28T03:06:04.200Z,8.45
2023-01-28T03:08:54.117Z,8.38
2023-01-28T03:11:39.710Z,19.15
2023-01-28T03:14:27.376Z,10.98
2023-01-28T03:17:12.705Z,10.88
2023-01-28T03:19:58.117Z,9.88
2023-01-28T03:22:43.654Z,9.48
2023-01-28T03:25:29.229Z,8.25
2023-01-28T03:28:16.242Z,8.57
2023-01-28T03:31:01.702Z,6.60
2023-01-28T03:33:47.501Z,8.18
2023-01-28T03:36:33.062Z,9.52
2023-01-28T03:39:00.045Z,9.10
2023-01-28T03:41:27.059Z,6.32
2023-01-28T03:43:54.774Z,7.40
2023-01-28T03:46:21.836Z,5.93
2023-01-28T03:48:48.848Z,7.85
2023-01-28T03:51:16.423Z,7.90
2023-01-28T03:53:43.488Z,5.05
2023-01-28T03:56:18.470Z,6.40
2023-01-28T03:58:56.435Z,6.03
2023-01-28T04:01:24.070Z,7.53
2023-01-28T04:03:51.168Z,6.97
2023-01-28T04:06:18.141Z,9.57
2023-01-28T04:08:48.891Z,6.22
2023-01-28T04:11:15.965Z,6.55
2023-01-28T04:13:43.502Z,8.80
2023-01-28T04:16:11.001Z,7.50
2023-01-28T04:18:38.052Z,8.90
2023-01-28T04:21:05.195Z,9.35
2023-01-28T04:23:32.213Z,8.85
2023-01-28T04:25:59.214Z,10.20
2023-01-28T04:28:26.221Z,11.38
2023-01-28T04:30:53.369Z,8.75
2023-01-28T04:33:20.462Z,7.78
2023-01-28T04:35:47.535Z,12.60
2023-01-28T04:38:14.625Z,7.97
2023-01-28T04:40:41.625Z,9.80
2023-01-28T04:43:09.420Z,8.65
2023-01-28T04:45:36.483Z,7.20
2023-01-28T04:48:03.535Z,6.70
2023-01-28T04:50:30.542Z,10.10
2023-01-28T04:52:57.595Z,9.00
2023-01-28T04:55:24.627Z,7.43
2023-01-28T04:57:51.631Z,9.07
2023-01-28T05:00:18.939Z,5.88
2023-01-28T05:02:45.985Z,9.63
2023-01-28T05:05:13.550Z,9.50
2023-01-28T05:07:40.734Z,6.72
2023-01-28T05:10:07.919Z,8.30
2023-01-28T05:12:34.952Z,5.25
2023-01-28T05:15:02.009Z,6.88
2023-01-28T05:17:29.348Z,5.72
2023-01-28T05:19:56.412Z,8.82
2023-01-28T05:22:23.480Z,9.10
2023-01-28T05:24:50.456Z,10.85
2023-01-28T05:27:17.493Z,7.63
2023-01-28T05:29:44.608Z,9.05
2023-01-28T05:32:11.687Z,8.80
2023-01-28T05:34:38.692Z,6.45
2023-01-28T05:37:05.697Z,7.78
2023-01-28T05:39:32.731Z,6.80
2023-01-28T05:41:59.772Z,12.45
2023-01-28T05:44:26.797Z,7.03
2023-01-28T05:46:53.817Z,5.82
2023-01-28T05:49:20.873Z,8.98
2023-01-28T05:51:48.319Z,6.38
2023-01-28T05:54:15.400Z,7.35
2023-01-28T05:56:42.463Z,5.40
2023-01-28T05:59:11.435Z,9.02
2023-01-28T06:01:38.575Z,8.18
2023-01-28T06:04:05.594Z,5.38
2023-01-28T06:06:32.665Z,7.45
2023-01-28T06:08:59.723Z,7.15
2023-01-28T06:11:27.376Z,7.93
2023-01-28T06:13:54.451Z,6.43
2023-01-28T06:16:21.498Z,5.40
2023-01-28T06:18:48.504Z,5.47
2023-01-28T06:21:15.478Z,4.07
2023-01-28T06:23:42.546Z,4.03
2023-01-28T06:26:09.592Z,5.93
2023-01-28T06:28:36.592Z,6.07
2023-01-28T06:31:03.756Z,6.55
2023-01-28T06:33:30.887Z,6.90
2023-01-28T06:35:57.902Z,5.40
2023-01-28T06:38:24.909Z,4.22
2023-01-28T06:40:52.705Z,4.18
2023-01-28T06:43:19.700Z,6.18
2023-01-28T06:45:46.833Z,5.45
2023-01-28T06:48:13.910Z,4.85
2023-01-28T06:50:41.031Z,4.78
2023-01-28T06:53:08.070Z,4.78
2023-01-28T06:55:35.100Z,7.25
2023-01-28T06:58:02.090Z,4.35
2023-01-28T07:00:29.143Z,4.95
2023-01-28T07:02:57.264Z,3.50
2023-01-28T07:05:24.593Z,5.70
2023-01-28T07:07:51.646Z,4.90
2023-01-28T07:10:18.739Z,5.43
2023-01-28T07:12:46.013Z,4.57
2023-01-28T07:15:15.023Z,7.38
2023-01-28T07:17:42.460Z,4.32
2023-01-28T07:20:10.457Z,5.75
2023-01-28T07:22:39.440Z,5.53
2023-01-28T07:25:07.072Z,3.92
2023-01-28T07:27:34.258Z,4.57
2023-01-28T07:30:01.324Z,6.13
2023-01-28T07:32:28.870Z,5.72
2023-01-28T07:34:55.899Z,5.35
2023-01-28T07:37:23.034Z,4.75
2023-01-28T07:39:50.175Z,3.63
2023-01-28T07:42:17.926Z,6.53
2023-01-28T07:44:45.111Z,4.88
2023-01-28T07:47:12.703Z,4.18
2023-01-28T07:49:39.909Z,7.35
2023-01-28T07:52:07.430Z,8.18
2023-01-28T07:54:34.668Z,3.63
2023-01-28T07:57:01.747Z,4.43
2023-01-28T07:59:28.839Z,5.88
2023-01-28T08:01:55.900Z,5.13
2023-01-28T08:04:23.106Z,4.80
2023-01-28T08:06:52.168Z,5.57
2023-01-28T08:09:19.211Z,4.13
2023-01-28T08:11:46.226Z,6.28
2023-01-28T08:14:13.295Z,8.75
2023-01-28T08:16:40.312Z,4.82
2023-01-28T08:19:07.364Z,5.82
2023-01-28T08:21:34.466Z,7.82
2023-01-28T08:24:01.500Z,7.63
2023-01-28T08:26:28.587Z,15.02
2023-01-28T08:28:55.570Z,6.32
2023-01-28T08:31:22.642Z,8.15
2023-01-28T08:33:49.809Z,4.35
2023-01-28T08:36:16.898Z,3.40
2023-01-28T08:38:43.981Z,6.05
2023-01-28T08:41:11.082Z,5.18
2023-01-28T08:43:38.198Z,3.03
2023-01-28T08:46:08.493Z,3.58
2023-01-28T08:48:35.610Z,3.83
2023-01-28T08:51:02.608Z,3.55
2023-01-28T08:53:29.639Z,3.20
2023-01-28T08:55:56.707Z,4.28
2023-01-28T08:58:23.735Z,2.55
2023-01-28T09:00:50.990Z,3.72
2023-01-28T09:03:18.424Z,3.95
2023-01-28T09:05:45.525Z,3.38
2023-01-28T09:08:13.637Z,3.65
2023-01-28T09:10:42.012Z,3.92
2023-01-28T09:13:13.294Z,2.83
2023-01-28T09:15:40.532Z,6.10
2023-01-28T09:18:07.687Z,3.65
2023-01-28T09:20:34.782Z,3.42
2023-01-28T09:23:02.019Z,4.00
2023-01-28T09:25:29.054Z,4.13
2023-01-28T09:27:56.032Z,3.95
2023-01-28T09:30:23.184Z,6.22
2023-01-28T09:32:51.341Z,2.65
2023-01-28T09:35:19.335Z,4.30
2023-01-28T09:37:46.668Z,4.72
2023-01-28T09:40:18.170Z,3.38
2023-01-28T09:42:48.656Z,1.55
2023-01-28T09:47:51.576Z,2.47
2023-01-28T09:50:24.859Z,3.28
2023-01-28T09:52:51.867Z,4.97
2023-01-28T09:55:38.808Z,6.63
2023-01-28T09:58:06.737Z,3.17
2023-01-28T10:00:37.551Z,4.25
2023-01-28T10:03:07.678Z,4.25
2023-01-28T10:05:44.666Z,3.78
2023-01-28T10:08:47.502Z,6.00
2023-01-28T10:11:20.652Z,4.55
2023-01-28T10:14:16.814Z,3.47
2023-01-28T10:16:44.312Z,4.28
2023-01-28T10:19:11.978Z,7.15
2023-01-28T10:21:49.715Z,4.28
2023-01-28T10:24:25.732Z,3.92
2023-01-28T10:26:53.066Z,4.28
2023-01-28T10:29:22.877Z,5.13
2023-01-28T10:31:56.981Z,3.42
2023-01-28T10:34:24.142Z,4.70
2023-01-28T10:36:51.210Z,1.77
2023-01-28T10:39:19.392Z,4.07
2023-01-28T10:41:57.322Z,3.10
2023-01-28T10:44:33.339Z,4.35
2023-01-28T10:47:00.654Z,2.55
2023-01-28T10:49:28.459Z,5.03
2023-01-28T10:51:55.549Z,3.88
2023-01-28T10:54:23.717Z,14.35
2023-01-28T10:56:51.365Z,10.40
2023-01-28T10:59:28.134Z,8.00
2023-01-28T11:01:59.035Z,8.60
2023-01-28T11:04:30.293Z,3.00
2023-01-28T11:07:00.408Z,2.50
2023-01-28T11:09:31.253Z,4.95
2023-01-28T11:12:13.783Z,12.23
2023-01-28T11:14:44.823Z,4.03
2023-01-28T11:17:16.837Z,4.05
2023-01-28T11:19:43.988Z,2.80
2023-01-28T11:22:23.064Z,4.72
2023-01-28T11:24:50.398Z,5.68
2023-01-28T11:27:17.869Z,6.03
2023-01-28T11:29:44.928Z,5.07
2023-01-28T11:32:19.062Z,4.40
2023-01-28T11:34:53.137Z,3.88
2023-01-28T11:37:22.451Z,6.90
2023-01-28T11:39:49.751Z,7.88
2023-01-28T11:42:18.266Z,2.05
2023-01-28T11:44:45.671Z,3.58
2023-01-28T11:47:31.795Z,6.57
2023-01-28T11:49:59.023Z,4.85
2023-01-28T11:53:05.125Z,4.07
2023-01-28T11:58:02.876Z,15.10
2023-01-28T12:00:48.423Z,4.28
2023-01-28T12:03:21.485Z,4.18
2023-01-28T12:05:55.966Z,5.75
2023-01-28T12:08:26.108Z,6.55
2023-01-28T12:10:55.987Z,4.72
2023-01-28T12:13:29.012Z,5.80
2023-01-28T12:16:09.026Z,5.57
2023-01-28T12:19:03.186Z,6.80
2023-01-28T12:21:43.088Z,8.63
2023-01-28T12:24:16.381Z,3.92
2023-01-28T12:26:46.727Z,3.70
2023-01-28T12:29:26.586Z,8.65
2023-01-28T12:32:01.012Z,4.22
2023-01-28T12:34:46.986Z,3.90
2023-01-28T12:37:37.404Z,3.47
2023-01-28T12:40:10.452Z,3.88
2023-01-28T12:42:45.210Z,5.50
2023-01-28T12:45:19.809Z,3.55
2023-01-28T12:47:49.320Z,5.47
2023-01-28T12:50:23.905Z,6.93
2023-01-28T12:52:52.889Z,6.05
2023-01-28T12:55:35.767Z,12.80
2023-01-28T12:58:02.848Z,10.75
2023-01-28T13:00:30.977Z,6.63
2023-01-28T13:03:01.520Z,5.78
2023-01-28T13:08:05.708Z,4.75
2023-01-28T13:10:39.824Z,5.18
2023-01-28T13:13:07.194Z,3.08
2023-01-28T13:15:34.240Z,3.85
2023-01-28T13:18:02.181Z,4.25
2023-01-28T13:20:32.334Z,7.05
2023-01-28T13:23:02.833Z,4.80
2023-01-28T13:27:57.997Z,4.03
2023-01-28T13:30:28.145Z,3.95
2023-01-28T13:32:58.962Z,2.97
2023-01-28T13:35:41.380Z,3.30
2023-01-28T13:38:09.187Z,6.75
2023-01-28T13:40:36.561Z,5.25
2023-01-28T13:43:07.152Z,5.57
2023-01-28T13:48:01.310Z,7.00
2023-01-28T13:50:34.387Z,10.27
2023-01-28T13:53:03.539Z,6.93
2023-01-28T13:55:43.500Z,10.23
2023-01-28T13:58:30.381Z,5.47
2023-01-28T14:01:11.676Z,5.53
2023-01-28T14:03:52.200Z,5.63
2023-01-28T14:06:25.952Z,5.75
2023-01-28T14:09:05.908Z,7.22
2023-01-28T14:11:52.464Z,5.15
2023-01-28T14:14:22.761Z,6.80
2023-01-28T14:16:55.689Z,11.88
2023-01-28T14:19:29.885Z,5.68
2023-01-28T14:21:56.920Z,9.88
2023-01-28T14:24:24.104Z,6.32
2023-01-28T14:26:54.117Z,4.93
2023-01-28T14:29:44.794Z,6.72
2023-01-28T14:34:38.972Z,6.45
2023-01-28T14:37:07.108Z,5.32
2023-01-28T14:39:35.325Z,7.50
2023-01-28T14:42:02.984Z,7.38
2023-01-28T14:44:34.243Z,8.35
2023-01-28T14:47:01.377Z,5.13
2023-01-28T14:49:46.468Z,4.75
2023-01-28T14:52:27.324Z,4.90
2023-01-28T14:54:54.348Z,6.82
2023-01-28T14:57:39.962Z,7.07
2023-01-28T15:00:17.256Z,7.93
2023-01-28T15:02:44.893Z,7.82
2023-01-28T15:05:22.426Z,6.40
2023-01-28T15:07:49.529Z,5.47
2023-01-28T15:10:18.135Z,4.55
2023-01-28T15:12:47.777Z,5.55
2023-01-28T15:15:21.031Z,7.28
2023-01-28T15:17:48.229Z,6.60
2023-01-28T15:20:22.499Z,7.05
2023-01-28T15:22:49.739Z,2.95
2023-01-28T15:25:17.916Z,8.27
2023-01-28T15:27:45.118Z,7.95
2023-01-28T15:30:25.618Z,7.43
2023-01-28T15:32:59.912Z,8.90
2023-01-28T15:35:27.201Z,7.72
2023-01-28T15:37:54.297Z,5.60
2023-01-28T15:40:21.910Z,7.20
2023-01-28T15:42:49.222Z,5.22
2023-01-28T15:45:20.456Z,7.85
2023-01-28T15:47:47.990Z,5.32
2023-01-28T15:50:22.045Z,9.15
2023-01-28T15:52:49.182Z,7.43
2023-01-28T15:55:42.709Z,5.88
2023-01-28T15:58:18.016Z,8.45
2023-01-28T16:00:45.762Z,11.23
2023-01-28T16:03:18.415Z,9.98
2023-01-28T16:05:54.263Z,9.80
2023-01-28T16:08:25.500Z,10.40
2023-01-28T16:10:56.271Z,12.80
2023-01-28T16:13:26.792Z,13.93
2023-01-28T16:18:31.778Z,15.98
2023-01-28T16:20:59.275Z,15.93
2023-01-28T16:23:27.417Z,15.25
2023-01-28T16:26:26.994Z,20.63
2023-01-28T16:28:54.177Z,9.70
2023-01-28T16:31:21.400Z,10.13
2023-01-28T16:33:48.568Z,10.63
2023-01-28T16:36:16.278Z,6.78
2023-01-28T16:38:43.322Z,9.05
2023-01-28T16:41:14.150Z,7.68
2023-01-28T16:43:41.213Z,10.45
2023-01-28T16:46:10.464Z,10.13
2023-01-28T16:48:37.553Z,11.05
2023-01-28T16:51:04.795Z,14.45
2023-01-28T16:53:33.451Z,24.35
2023-01-28T16:56:00.576Z,22.25
2023-01-28T16:58:27.684Z,19.13
2023-01-28T17:00:54.798Z,20.65
2023-01-28T17:03:22.349Z,15.93
2023-01-28T17:05:49.575Z,11.60
2023-01-28T17:08:16.916Z,10.25
2023-01-28T17:10:44.524Z,13.85
2023-01-28T17:13:11.524Z,13.20
2023-01-28T17:15:38.575Z,24.38
2023-01-28T17:18:05.766Z,40.78
2023-01-28T17:20:37.340Z,19.13
2023-01-28T17:23:06.943Z,23.92
2023-01-28T17:25:37.047Z,22.07
2023-01-28T17:28:04.173Z,20.02
2023-01-28T17:30:31.260Z,24.27
2023-01-28T17:32:58.295Z,15.70
2023-01-28T17:35:25.328Z,15.80
2023-01-28T17:37:55.567Z,18.48
2023-01-28T17:40:22.828Z,23.23
2023-01-28T17:42:49.847Z,23.75
2023-01-28T17:45:17.463Z,21.45
2023-01-28T17:47:44.802Z,14.32
2023-01-28T17:50:12.124Z,15.77
2023-01-28T17:52:40.892Z,15.95
2023-01-28T17:55:09.299Z,9.65
2023-01-28T17:57:45.608Z,11.20
2023-01-28T18:00:12.856Z,10.02
2023-01-28T18:02:39.907Z,8.02
2023-01-28T18:05:07.712Z,8.60
2023-01-28T18:07:34.787Z,6.60
2023-01-28T18:10:01.985Z,6.88
2023-01-28T18:12:28.990Z,10.55
2023-01-28T18:14:56.034Z,9.30
2023-01-28T18:17:26.997Z,10.65
2023-01-28T18:19:54.035Z,10.88
2023-01-28T18:22:21.093Z,8.60
2023-01-28T18:24:48.145Z,12.80
2023-01-28T18:27:15.255Z,13.50
2023-01-28T18:29:42.274Z,11.18
2023-01-28T18:32:09.297Z,11.82
2023-01-28T18:34:36.403Z,10.30
2023-01-28T18:37:03.631Z,10.73
2023-01-28T18:39:30.999Z,10.75
2023-01-28T18:41:58.284Z,11.13
2023-01-28T18:44:25.735Z,10.18
2023-01-28T18:46:52.872Z,8.90
2023-01-28T18:49:19.897Z,10.85
2023-01-28T18:51:46.882Z,11.48
2023-01-28T18:54:14.832Z,13.32
2023-01-28T18:56:42.112Z,10.25
2023-01-28T18:59:10.752Z,13.55
2023-01-28T19:01:37.889Z,20.38
2023-01-28T19:04:05.011Z,24.02
2023-01-28T19:06:32.119Z,13.13
2023-01-28T19:09:00.135Z,10.25
2023-01-28T19:11:27.427Z,10.13
2023-01-28T19:13:54.508Z,9.40
2023-01-28T19:16:21.788Z,8.32
2023-01-28T19:18:55.561Z,8.07
2023-01-28T19:21:22.927Z,12.00
2023-01-28T19:23:55.079Z,12.02
2023-01-28T19:26:22.440Z,7.70
2023-01-28T19:28:49.678Z,10.70
2023-01-28T19:31:18.743Z,7.80
2023-01-28T19:33:46.081Z,9.45
2023-01-28T19:36:13.725Z,7.10
2023-01-28T19:38:40.798Z,7.35
2023-01-28T19:41:07.816Z,8.07
2023-01-28T19:43:35.079Z,9.60
2023-01-28T19:46:02.858Z,11.15
2023-01-28T19:48:30.073Z,11.63
2023-01-28T19:50:57.065Z,8.55
2023-01-28T19:53:24.125Z,13.18
2023-01-28T19:55:52.247Z,11.75
2023-01-28T19:58:19.426Z,12.30
2023-01-28T20:00:46.519Z,7.88
2023-01-28T20:03:13.549Z,7.72
2023-01-28T20:05:40.612Z,6.95
2023-01-28T20:08:07.629Z,6.90
2023-01-28T20:10:34.675Z,8.23
2023-01-28T20:13:01.764Z,7.20
2023-01-28T20:15:28.924Z,8.98
2023-01-28T20:17:56.326Z,8.38
2023-01-28T20:20:23.368Z,8.82
2023-01-28T20:22:50.426Z,9.73
2023-01-28T20:25:17.918Z,11.55
2023-01-28T20:27:45.163Z,11.85
2023-01-28T20:30:12.515Z,10.18
2023-01-28T20:32:39.491Z,11.55
2023-01-28T20:35:06.677Z,15.50
2023-01-28T20:37:33.783Z,7.90
2023-01-28T20:40:00.909Z,10.98
2023-01-28T20:42:27.950Z,9.48
2023-01-28T20:44:54.989Z,11.35
2023-01-28T20:47:21.996Z,10.73
2023-01-28T20:49:49.035Z,14.27
2023-01-28T20:52:16.866Z,13.95
2023-01-28T20:54:43.915Z,10.45
2023-01-28T20:57:11.016Z,9.52
2023-01-28T20:59:38.014Z,9.40
2023-01-28T21:02:05.393Z,13.05
2023-01-28T21:04:32.790Z,15.40
2023-01-28T21:06:59.814Z,14.15
2023-01-28T21:09:27.754Z,11.05
2023-01-28T21:11:54.763Z,13.25
2023-01-28T21:14:21.764Z,11.13
2023-01-28T21:16:51.213Z,11.32
2023-01-28T21:19:18.359Z,13.50
2023-01-28T21:21:46.000Z,11.82
2023-01-28T21:24:13.129Z,50.15
2023-01-28T21:26:40.166Z,11.32
2023-01-28T21:29:07.183Z,11.60
2023-01-28T21:31:34.253Z,10.63
2023-01-28T21:34:01.505Z,10.77
2023-01-28T21:36:31.609Z,10.23
2023-01-28T21:38:59.825Z,12.85
2023-01-28T21:41:27.347Z,8.07
2023-01-28T21:43:54.658Z,9.65
2023-01-28T21:46:22.148Z,8.63
2023-01-28T21:48:49.496Z,8.57
2023-01-28T21:51:34.957Z,9.77
2023-01-28T21:54:02.407Z,10.13
2023-01-28T21:56:29.459Z,9.95
2023-01-28T21:59:15.088Z,6.38
2023-01-28T22:01:44.048Z,9.32
2023-01-28T22:04:11.144Z,8.15
2023-01-28T22:06:38.176Z,7.88
2023-01-28T22:09:05.224Z,9.50
2023-01-28T22:11:32.461Z,14.27
2023-01-28T22:13:59.547Z,15.82
2023-01-28T22:16:26.645Z,13.60
2023-01-28T22:18:53.646Z,9.73
2023-01-28T22:21:20.700Z,8.73
2023-01-28T22:23:47.777Z,10.57
2023-01-28T22:26:14.758Z,7.53
2023-01-28T22:28:41.787Z,10.63
2023-01-28T22:31:09.712Z,6.15
2023-01-28T22:33:36.941Z,11.48
2023-01-28T22:39:52.361Z,10.85
2023-01-28T22:42:20.530Z,7.93
2023-01-28T22:44:47.540Z,12.13
2023-01-28T22:47:14.516Z,7.72
2023-01-28T22:49:41.522Z,7.40
2023-01-28T22:52:08.534Z,7.53
2023-01-28T22:54:35.504Z,9.68
2023-01-28T22:57:02.480Z,6.13
2023-01-28T22:59:29.535Z,5.97
2023-01-28T23:01:56.606Z,6.97
2023-01-28T23:04:23.669Z,7.30
2023-01-28T23:06:50.671Z,10.20
2023-01-28T23:09:17.698Z,9.52
2023-01-28T23:11:44.697Z,10.35
2023-01-28T23:14:30.211Z,14.00
2023-01-28T23:17:15.674Z,11.25
2023-01-28T23:20:01.290Z,9.70
2023-01-28T23:22:50.707Z,8.57
2023-01-28T23:25:18.164Z,10.25
2023-01-28T23:27:45.295Z,8.43
2023-01-28T23:30:12.698Z,7.78
2023-01-28T23:32:40.718Z,15.50
2023-01-28T23:35:08.471Z,13.30
2023-01-28T23:37:35.453Z,8.90
2023-01-28T23:40:02.971Z,9.30
2023-01-28T23:42:30.279Z,6.78
2023-01-28T23:44:57.272Z,7.90
2023-01-28T23:47:24.285Z,10.00
2023-01-28T23:49:51.353Z,8.57
2023-01-28T23:52:18.462Z,10.05
2023-01-28T23:54:45.676Z,6.90
2023-01-28T23:57:12.716Z,7.20
2023-01-28T23:59:39.801Z,6.93
